sensor_id;sensor_type;location;lat;lon;timestamp;pressure;altitude;pressure_sealevel;temperature;humidity
10881;BME280;5493;48.884;8.338;2022-11-23T00:01:21;98842.53;;;9.53;100.00
10881;BME280;5493;48.884;8.338;2022-11-23T00:03:49;98838.91;;;9.43;100.00
10881;BME280;5493;48.884;8.338;2022-11-23T00:06:16;98842.50;;;9.31;100.00
10881;BME280;5493;48.884;8.338;2022-11-23T00:08:43;98840.88;;;9.30;100.00
10881;BME280;5493;48.884;8.338;2022-11-23T00:11:10;98838.34;;;9.24;100.00
10881;BME280;5493;48.884;8.338;2022-11-23T00:13:37;98846.56;;;9.34;100.00
10881;BME280;5493;48.884;8.338;2022-11-23T00:16:06;98845.88;;;9.22;100.00
10881;BME280;5493;48.884;8.338;2022-11-23T00:18:33;98844.31;;;9.26;100.00
10881;BME280;5493;48.884;8.338;2022-11-23T00:21:04;98840.28;;;9.45;100.00
10881;BME280;5493;48.884;8.338;2022-11-23T00:23:31;98849.06;;;9.40;100.00
10881;BME280;5493;48.884;8.338;2022-11-23T00:25:57;98843.41;;;9.20;100.00
10881;BME280;5493;48.884;8.338;2022-11-23T00:28:24;98846.00;;;9.32;100.00
10881;BME280;5493;48.884;8.338;2022-11-23T00:30:50;98843.88;;;9.34;100.00
10881;BME280;5493;48.884;8.338;2022-11-23T00:33:18;98843.69;;;9.40;100.00
10881;BME280;5493;48.884;8.338;2022-11-23T00:35:45;98842.31;;;9.38;100.00
10881;BME280;5493;48.884;8.338;2022-11-23T00:38:12;98855.03;;;9.43;100.00
10881;BME280;5493;48.884;8.338;2022-11-23T00:40:38;98848.44;;;9.33;100.00
10881;BME280;5493;48.884;8.338;2022-11-23T00:43:05;98854.53;;;9.46;100.00
10881;BME280;5493;48.884;8.338;2022-11-23T00:45:31;98850.28;;;9.50;100.00
10881;BME280;5493;48.884;8.338;2022-11-23T00:47:58;98846.09;;;9.59;100.00
10881;BME280;5493;48.884;8.338;2022-11-23T00:50:26;98858.38;;;9.50;100.00
10881;BME280;5493;48.884;8.338;2022-11-23T00:52:52;98845.78;;;9.55;100.00
10881;BME280;5493;48.884;8.338;2022-11-23T00:55:19;98847.53;;;9.45;100.00
10881;BME280;5493;48.884;8.338;2022-11-23T00:57:45;98854.31;;;9.47;100.00
10881;BME280;5493;48.884;8.338;2022-11-23T01:00:12;98851.13;;;9.50;100.00
10881;BME280;5493;48.884;8.338;2022-11-23T01:02:39;98851.06;;;9.28;100.00
10881;BME280;5493;48.884;8.338;2022-11-23T01:05:06;98852.44;;;9.31;100.00
10881;BME280;5493;48.884;8.338;2022-11-23T01:07:34;98843.56;;;9.47;100.00
10881;BME280;5493;48.884;8.338;2022-11-23T01:10:00;98855.28;;;9.41;100.00
10881;BME280;5493;48.884;8.338;2022-11-23T01:12:27;98849.56;;;9.37;100.00
10881;BME280;5493;48.884;8.338;2022-11-23T01:14:55;98854.03;;;9.49;100.00
10881;BME280;5493;48.884;8.338;2022-11-23T01:17:21;98861.06;;;9.50;100.00
10881;BME280;5493;48.884;8.338;2022-11-23T01:19:48;98857.16;;;9.40;100.00
10881;BME280;5493;48.884;8.338;2022-11-23T01:22:14;98858.47;;;9.38;100.00
10881;BME280;5493;48.884;8.338;2022-11-23T01:24:42;98865.47;;;9.39;100.00
10881;BME280;5493;48.884;8.338;2022-11-23T01:27:09;98857.81;;;9.31;100.00
10881;BME280;5493;48.884;8.338;2022-11-23T01:29:35;98858.88;;;9.30;100.00
10881;BME280;5493;48.884;8.338;2022-11-23T01:32:02;98865.31;;;9.46;100.00
10881;BME280;5493;48.884;8.338;2022-11-23T01:34:28;98863.03;;;9.37;100.00
10881;BME280;5493;48.884;8.338;2022-11-23T01:36:55;98861.25;;;9.43;100.00
10881;BME280;5493;48.884;8.338;2022-11-23T01:39:21;98868.66;;;9.36;100.00
10881;BME280;5493;48.884;8.338;2022-11-23T01:41:49;98866.34;;;9.45;100.00
10881;BME280;5493;48.884;8.338;2022-11-23T01:44:25;98864.47;;;9.45;100.00
10881;BME280;5493;48.884;8.338;2022-11-23T01:46:52;98870.69;;;9.46;100.00
10881;BME280;5493;48.884;8.338;2022-11-23T01:49:19;98871.63;;;9.56;100.00
10881;BME280;5493;48.884;8.338;2022-11-23T01:51:49;98872.69;;;9.55;100.00
10881;BME280;5493;48.884;8.338;2022-11-23T01:54:18;98876.19;;;9.56;100.00
10881;BME280;5493;48.884;8.338;2022-11-23T01:56:52;98869.88;;;9.45;100.00
10881;BME280;5493;48.884;8.338;2022-11-23T01:59:20;98875.56;;;9.65;100.00
10881;BME280;5493;48.884;8.338;2022-11-23T02:01:48;98873.41;;;9.67;100.00
10881;BME280;5493;48.884;8.338;2022-11-23T02:04:18;98872.78;;;9.60;100.00
10881;BME280;5493;48.884;8.338;2022-11-23T02:06:47;98875.88;;;9.69;100.00
10881;BME280;5493;48.884;8.338;2022-11-23T02:09:15;98874.22;;;9.68;100.00
10881;BME280;5493;48.884;8.338;2022-11-23T02:11:42;98871.50;;;9.84;100.00
10881;BME280;5493;48.884;8.338;2022-11-23T02:14:10;98870.63;;;9.79;100.00
10881;BME280;5493;48.884;8.338;2022-11-23T02:16:37;98877.63;;;9.80;100.00
10881;BME280;5493;48.884;8.338;2022-11-23T02:19:09;98876.81;;;9.79;100.00
10881;BME280;5493;48.884;8.338;2022-11-23T02:21:40;98873.94;;;9.86;100.00
10881;BME280;5493;48.884;8.338;2022-11-23T02:24:10;98883.88;;;9.85;100.00
10881;BME280;5493;48.884;8.338;2022-11-23T02:26:41;98887.53;;;9.96;100.00
10881;BME280;5493;48.884;8.338;2022-11-23T02:29:10;98884.53;;;9.93;100.00
10881;BME280;5493;48.884;8.338;2022-11-23T02:31:39;98889.81;;;9.87;100.00
10881;BME280;5493;48.884;8.338;2022-11-23T02:34:06;98880.97;;;10.09;100.00
10881;BME280;5493;48.884;8.338;2022-11-23T02:36:38;98880.81;;;9.99;100.00
10881;BME280;5493;48.884;8.338;2022-11-23T02:39:09;98879.63;;;9.89;100.00
10881;BME280;5493;48.884;8.338;2022-11-23T02:41:38;98880.66;;;9.83;100.00
10881;BME280;5493;48.884;8.338;2022-11-23T02:44:16;98881.63;;;9.99;100.00
10881;BME280;5493;48.884;8.338;2022-11-23T02:46:46;98866.81;;;9.97;100.00
10881;BME280;5493;48.884;8.338;2022-11-23T02:49:12;98874.56;;;9.93;100.00
10881;BME280;5493;48.884;8.338;2022-11-23T02:51:39;98874.06;;;9.96;100.00
10881;BME280;5493;48.884;8.338;2022-11-23T02:54:06;98869.00;;;10.00;100.00
10881;BME280;5493;48.884;8.338;2022-11-23T02:56:32;98870.94;;;10.04;100.00
10881;BME280;5493;48.884;8.338;2022-11-23T02:58:59;98871.66;;;9.78;100.00
10881;BME280;5493;48.884;8.338;2022-11-23T03:01:27;98862.66;;;9.67;100.00
10881;BME280;5493;48.884;8.338;2022-11-23T03:03:54;98868.88;;;9.89;100.00
10881;BME280;5493;48.884;8.338;2022-11-23T03:06:21;98852.94;;;9.66;100.00
10881;BME280;5493;48.884;8.338;2022-11-23T03:08:47;98854.13;;;9.54;100.00
10881;BME280;5493;48.884;8.338;2022-11-23T03:11:14;98853.88;;;9.77;100.00
10881;BME280;5493;48.884;8.338;2022-11-23T03:13:41;98850.41;;;9.76;100.00
10881;BME280;5493;48.884;8.338;2022-11-23T03:16:08;98844.06;;;9.66;100.00
10881;BME280;5493;48.884;8.338;2022-11-23T03:18:36;98846.75;;;9.66;100.00
10881;BME280;5493;48.884;8.338;2022-11-23T03:21:03;98834.44;;;9.92;100.00
10881;BME280;5493;48.884;8.338;2022-11-23T03:23:30;98834.31;;;9.81;100.00
10881;BME280;5493;48.884;8.338;2022-11-23T03:25:57;98837.59;;;9.83;100.00
10881;BME280;5493;48.884;8.338;2022-11-23T03:28:24;98837.25;;;9.58;100.00
10881;BME280;5493;48.884;8.338;2022-11-23T03:30:51;98850.75;;;9.63;100.00
10881;BME280;5493;48.884;8.338;2022-11-23T03:33:18;98846.28;;;9.69;100.00
10881;BME280;5493;48.884;8.338;2022-11-23T03:35:46;98850.53;;;9.48;100.00
10881;BME280;5493;48.884;8.338;2022-11-23T03:38:13;98845.00;;;9.55;100.00
10881;BME280;5493;48.884;8.338;2022-11-23T03:40:40;98849.97;;;9.46;100.00
10881;BME280;5493;48.884;8.338;2022-11-23T03:43:06;98851.03;;;9.62;100.00
10881;BME280;5493;48.884;8.338;2022-11-23T03:45:33;98846.00;;;9.70;100.00
10881;BME280;5493;48.884;8.338;2022-11-23T03:47:59;98849.91;;;9.41;100.00
10881;BME280;5493;48.884;8.338;2022-11-23T03:50:26;98845.97;;;9.49;100.00
10881;BME280;5493;48.884;8.338;2022-11-23T03:52:55;98848.25;;;9.57;100.00
10881;BME280;5493;48.884;8.338;2022-11-23T03:55:24;98842.88;;;9.57;100.00
10881;BME280;5493;48.884;8.338;2022-11-23T03:57:51;98837.91;;;9.49;100.00
10881;BME280;5493;48.884;8.338;2022-11-23T04:00:19;98848.16;;;9.52;100.00
10881;BME280;5493;48.884;8.338;2022-11-23T04:02:45;98843.03;;;9.50;100.00
10881;BME280;5493;48.884;8.338;2022-11-23T04:05:12;98843.19;;;9.60;100.00
10881;BME280;5493;48.884;8.338;2022-11-23T04:07:38;98846.91;;;9.76;100.00
10881;BME280;5493;48.884;8.338;2022-11-23T04:10:07;98851.34;;;9.49;100.00
10881;BME280;5493;48.884;8.338;2022-11-23T04:12:34;98846.00;;;9.32;100.00
10881;BME280;5493;48.884;8.338;2022-11-23T04:15:01;98850.22;;;9.45;100.00
10881;BME280;5493;48.884;8.338;2022-11-23T04:17:28;98849.41;;;9.44;100.00
10881;BME280;5493;48.884;8.338;2022-11-23T04:19:54;98843.56;;;9.47;100.00
10881;BME280;5493;48.884;8.338;2022-11-23T04:22:21;98839.94;;;9.42;100.00
10881;BME280;5493;48.884;8.338;2022-11-23T04:24:47;98839.31;;;9.34;100.00
10881;BME280;5493;48.884;8.338;2022-11-23T04:27:15;98835.47;;;9.47;100.00
10881;BME280;5493;48.884;8.338;2022-11-23T04:29:42;98831.16;;;9.46;100.00
10881;BME280;5493;48.884;8.338;2022-11-23T04:32:08;98831.97;;;9.47;100.00
10881;BME280;5493;48.884;8.338;2022-11-23T04:34:35;98833.53;;;9.43;100.00
10881;BME280;5493;48.884;8.338;2022-11-23T04:37:01;98827.13;;;9.49;100.00
10881;BME280;5493;48.884;8.338;2022-11-23T04:39:28;98829.22;;;9.63;100.00
10881;BME280;5493;48.884;8.338;2022-11-23T04:41:55;98828.72;;;9.66;100.00
10881;BME280;5493;48.884;8.338;2022-11-23T04:44:23;98833.47;;;9.59;100.00
10881;BME280;5493;48.884;8.338;2022-11-23T04:46:49;98826.09;;;9.71;100.00
10881;BME280;5493;48.884;8.338;2022-11-23T04:49:16;98827.47;;;9.74;100.00
10881;BME280;5493;48.884;8.338;2022-11-23T04:51:43;98833.69;;;9.74;100.00
10881;BME280;5493;48.884;8.338;2022-11-23T04:54:09;98827.78;;;9.77;100.00
10881;BME280;5493;48.884;8.338;2022-11-23T04:56:36;98841.50;;;9.76;100.00
10881;BME280;5493;48.884;8.338;2022-11-23T04:59:02;98833.78;;;9.63;100.00
10881;BME280;5493;48.884;8.338;2022-11-23T05:01:30;98833.78;;;9.63;100.00
10881;BME280;5493;48.884;8.338;2022-11-23T05:03:57;98832.88;;;9.74;100.00
10881;BME280;5493;48.884;8.338;2022-11-23T05:06:24;98822.38;;;9.72;100.00
10881;BME280;5493;48.884;8.338;2022-11-23T05:08:50;98830.47;;;9.77;100.00
10881;BME280;5493;48.884;8.338;2022-11-23T05:11:17;98831.06;;;9.79;100.00
10881;BME280;5493;48.884;8.338;2022-11-23T05:13:44;98836.88;;;9.71;100.00
10881;BME280;5493;48.884;8.338;2022-11-23T05:16:10;98832.34;;;9.55;100.00
10881;BME280;5493;48.884;8.338;2022-11-23T05:18:38;98832.97;;;9.62;100.00
10881;BME280;5493;48.884;8.338;2022-11-23T05:21:05;98833.88;;;9.68;100.00
10881;BME280;5493;48.884;8.338;2022-11-23T05:23:32;98840.25;;;9.62;100.00
10881;BME280;5493;48.884;8.338;2022-11-23T05:25:58;98847.81;;;9.65;100.00
10881;BME280;5493;48.884;8.338;2022-11-23T05:28:25;98839.84;;;9.53;100.00
10881;BME280;5493;48.884;8.338;2022-11-23T05:30:51;98846.38;;;9.40;100.00
10881;BME280;5493;48.884;8.338;2022-11-23T05:33:18;98845.59;;;9.40;100.00
10881;BME280;5493;48.884;8.338;2022-11-23T05:35:46;98846.34;;;9.35;100.00
10881;BME280;5493;48.884;8.338;2022-11-23T05:38:12;98846.41;;;9.24;100.00
10881;BME280;5493;48.884;8.338;2022-11-23T05:40:39;98842.44;;;8.93;100.00
10881;BME280;5493;48.884;8.338;2022-11-23T05:43:05;98844.31;;;9.09;100.00
10881;BME280;5493;48.884;8.338;2022-11-23T05:45:32;98849.38;;;9.06;100.00
10881;BME280;5493;48.884;8.338;2022-11-23T05:47:59;98858.31;;;8.95;100.00
10881;BME280;5493;48.884;8.338;2022-11-23T05:50:26;98855.91;;;8.93;100.00
10881;BME280;5493;48.884;8.338;2022-11-23T05:52:56;98854.81;;;8.94;100.00
10881;BME280;5493;48.884;8.338;2022-11-23T05:55:23;98862.63;;;8.79;100.00
10881;BME280;5493;48.884;8.338;2022-11-23T05:57:49;98851.13;;;8.83;100.00
10881;BME280;5493;48.884;8.338;2022-11-23T06:00:16;98851.53;;;8.59;100.00
10881;BME280;5493;48.884;8.338;2022-11-23T06:02:43;98859.47;;;8.54;100.00
10881;BME280;5493;48.884;8.338;2022-11-23T06:05:09;98859.84;;;8.57;100.00
10881;BME280;5493;48.884;8.338;2022-11-23T06:07:36;98865.38;;;8.67;100.00
10881;BME280;5493;48.884;8.338;2022-11-23T06:10:06;98861.78;;;8.62;100.00
10881;BME280;5493;48.884;8.338;2022-11-23T06:12:33;98862.94;;;8.66;100.00
10881;BME280;5493;48.884;8.338;2022-11-23T06:14:59;98857.47;;;8.61;100.00
10881;BME280;5493;48.884;8.338;2022-11-23T06:17:26;98856.34;;;8.57;100.00
10881;BME280;5493;48.884;8.338;2022-11-23T06:19:53;98850.53;;;8.65;100.00
10881;BME280;5493;48.884;8.338;2022-11-23T06:22:19;98854.81;;;8.61;100.00
10881;BME280;5493;48.884;8.338;2022-11-23T06:24:46;98856.91;;;8.59;100.00
10881;BME280;5493;48.884;8.338;2022-11-23T06:27:13;98850.63;;;8.53;100.00
10881;BME280;5493;48.884;8.338;2022-11-23T06:29:41;98853.31;;;8.53;100.00
10881;BME280;5493;48.884;8.338;2022-11-23T06:32:08;98858.88;;;8.63;100.00
10881;BME280;5493;48.884;8.338;2022-11-23T06:34:35;98853.50;;;8.63;100.00
10881;BME280;5493;48.884;8.338;2022-11-23T06:37:01;98852.00;;;8.56;100.00
10881;BME280;5493;48.884;8.338;2022-11-23T06:39:28;98848.66;;;8.49;100.00
10881;BME280;5493;48.884;8.338;2022-11-23T06:41:54;98857.75;;;8.48;100.00
10881;BME280;5493;48.884;8.338;2022-11-23T06:44:22;98855.38;;;8.63;100.00
10881;BME280;5493;48.884;8.338;2022-11-23T06:46:49;98860.28;;;8.54;100.00
10881;BME280;5493;48.884;8.338;2022-11-23T06:49:16;98868.03;;;8.51;100.00
10881;BME280;5493;48.884;8.338;2022-11-23T06:51:44;98860.72;;;8.46;100.00
10881;BME280;5493;48.884;8.338;2022-11-23T06:54:11;98862.09;;;8.49;100.00
10881;BME280;5493;48.884;8.338;2022-11-23T06:56:37;98860.72;;;8.46;100.00
10881;BME280;5493;48.884;8.338;2022-11-23T06:59:04;98863.25;;;8.53;100.00
10881;BME280;5493;48.884;8.338;2022-11-23T07:01:32;98870.91;;;8.61;100.00
10881;BME280;5493;48.884;8.338;2022-11-23T07:03:59;98862.97;;;8.54;100.00
10881;BME280;5493;48.884;8.338;2022-11-23T07:06:26;98873.84;;;8.59;100.00
10881;BME280;5493;48.884;8.338;2022-11-23T07:08:53;98872.38;;;8.68;100.00
10881;BME280;5493;48.884;8.338;2022-11-23T07:11:20;98873.19;;;8.69;100.00
10881;BME280;5493;48.884;8.338;2022-11-23T07:13:47;98878.72;;;8.62;100.00
10881;BME280;5493;48.884;8.338;2022-11-23T07:16:13;98875.00;;;8.80;100.00
10881;BME280;5493;48.884;8.338;2022-11-23T07:18:41;98879.22;;;8.76;100.00
10881;BME280;5493;48.884;8.338;2022-11-23T07:21:08;98883.66;;;8.82;100.00
10881;BME280;5493;48.884;8.338;2022-11-23T07:23:34;98890.50;;;8.89;100.00
10881;BME280;5493;48.884;8.338;2022-11-23T07:26:05;98883.22;;;8.90;100.00
10881;BME280;5493;48.884;8.338;2022-11-23T07:28:31;98893.53;;;8.93;100.00
10881;BME280;5493;48.884;8.338;2022-11-23T07:30:58;98888.38;;;8.92;100.00
10881;BME280;5493;48.884;8.338;2022-11-23T07:33:24;98888.38;;;8.92;100.00
10881;BME280;5493;48.884;8.338;2022-11-23T07:35:54;98896.13;;;9.05;100.00
10881;BME280;5493;48.884;8.338;2022-11-23T07:38:21;98896.03;;;9.00;100.00
10881;BME280;5493;48.884;8.338;2022-11-23T07:40:48;98900.00;;;8.97;100.00
10881;BME280;5493;48.884;8.338;2022-11-23T07:43:15;98898.97;;;8.98;100.00
10881;BME280;5493;48.884;8.338;2022-11-23T07:45:42;98892.22;;;9.12;100.00
10881;BME280;5493;48.884;8.338;2022-11-23T07:48:09;98893.28;;;9.11;100.00
10881;BME280;5493;48.884;8.338;2022-11-23T07:50:37;98899.06;;;9.20;100.00
10881;BME280;5493;48.884;8.338;2022-11-23T07:53:06;98897.78;;;9.22;100.00
10881;BME280;5493;48.884;8.338;2022-11-23T07:55:33;98901.03;;;9.24;100.00
10881;BME280;5493;48.884;8.338;2022-11-23T07:57:59;98900.94;;;9.19;100.00
10881;BME280;5493;48.884;8.338;2022-11-23T08:00:28;98905.91;;;9.27;100.00
10881;BME280;5493;48.884;8.338;2022-11-23T08:02:56;98900.34;;;9.34;100.00
10881;BME280;5493;48.884;8.338;2022-11-23T08:05:23;98899.13;;;9.42;100.00
10881;BME280;5493;48.884;8.338;2022-11-23T08:07:50;98891.88;;;9.42;100.00
10881;BME280;5493;48.884;8.338;2022-11-23T08:10:18;98891.22;;;9.52;100.00
10881;BME280;5493;48.884;8.338;2022-11-23T08:12:45;98891.22;;;9.52;100.00
10881;BME280;5493;48.884;8.338;2022-11-23T08:15:11;98893.84;;;9.47;100.00
10881;BME280;5493;48.884;8.338;2022-11-23T08:17:38;98884.28;;;9.56;100.00
10881;BME280;5493;48.884;8.338;2022-11-23T08:20:05;98888.06;;;9.55;100.00
10881;BME280;5493;48.884;8.338;2022-11-23T08:22:32;98877.38;;;9.43;100.00
10881;BME280;5493;48.884;8.338;2022-11-23T08:24:59;98883.44;;;9.55;100.00
10881;BME280;5493;48.884;8.338;2022-11-23T08:27:26;98881.72;;;9.66;100.00
10881;BME280;5493;48.884;8.338;2022-11-23T08:29:53;98875.91;;;9.74;100.00
10881;BME280;5493;48.884;8.338;2022-11-23T08:32:20;98883.34;;;9.83;100.00
10881;BME280;5493;48.884;8.338;2022-11-23T08:34:46;98877.44;;;9.86;100.00
10881;BME280;5493;48.884;8.338;2022-11-23T08:37:13;98884.53;;;9.93;100.00
10881;BME280;5493;48.884;8.338;2022-11-23T08:39:39;98883.81;;;10.02;100.00
10881;BME280;5493;48.884;8.338;2022-11-23T08:42:06;98879.06;;;10.09;100.00
10881;BME280;5493;48.884;8.338;2022-11-23T08:44:34;98881.22;;;10.29;100.00
10881;BME280;5493;48.884;8.338;2022-11-23T08:47:00;98876.28;;;10.21;100.00
10881;BME280;5493;48.884;8.338;2022-11-23T08:49:27;98874.66;;;10.42;100.00
10881;BME280;5493;48.884;8.338;2022-11-23T08:51:53;98874.44;;;10.48;100.00
10881;BME280;5493;48.884;8.338;2022-11-23T08:54:20;98873.13;;;10.51;100.00
10881;BME280;5493;48.884;8.338;2022-11-23T08:56:48;98877.00;;;10.60;100.00
10881;BME280;5493;48.884;8.338;2022-11-23T08:59:15;98868.94;;;10.65;100.00
10881;BME280;5493;48.884;8.338;2022-11-23T09:01:45;98865.13;;;10.61;100.00
10881;BME280;5493;48.884;8.338;2022-11-23T09:04:11;98865.88;;;10.56;100.00
10881;BME280;5493;48.884;8.338;2022-11-23T09:06:38;98877.03;;;10.65;100.00
10881;BME280;5493;48.884;8.338;2022-11-23T09:09:05;98876.94;;;10.81;100.00
10881;BME280;5493;48.884;8.338;2022-11-23T09:11:31;98879.22;;;10.68;100.00
10881;BME280;5493;48.884;8.338;2022-11-23T09:13:58;98872.50;;;10.97;100.00
10881;BME280;5493;48.884;8.338;2022-11-23T09:16:24;98875.16;;;10.92;100.00
10881;BME280;5493;48.884;8.338;2022-11-23T09:18:55;98869.28;;;11.00;100.00
10881;BME280;5493;48.884;8.338;2022-11-23T09:21:22;98876.13;;;10.81;100.00
10881;BME280;5493;48.884;8.338;2022-11-23T09:23:53;98877.84;;;10.92;100.00
10881;BME280;5493;48.884;8.338;2022-11-23T09:26:20;98871.81;;;11.12;100.00
10881;BME280;5493;48.884;8.338;2022-11-23T09:28:47;98880.94;;;11.06;100.00
10881;BME280;5493;48.884;8.338;2022-11-23T09:31:13;98879.03;;;11.38;100.00
10881;BME280;5493;48.884;8.338;2022-11-23T09:33:40;98880.13;;;11.42;100.00
10881;BME280;5493;48.884;8.338;2022-11-23T09:36:08;98876.84;;;11.35;100.00
10881;BME280;5493;48.884;8.338;2022-11-23T09:38:34;98879.56;;;11.40;100.00
10881;BME280;5493;48.884;8.338;2022-11-23T09:41:11;98884.59;;;11.63;100.00
10881;BME280;5493;48.884;8.338;2022-11-23T09:43:48;98884.84;;;11.57;100.00
10881;BME280;5493;48.884;8.338;2022-11-23T09:46:27;98887.53;;;11.62;100.00
10881;BME280;5493;48.884;8.338;2022-11-23T09:49:14;98885.06;;;11.50;100.00
10881;BME280;5493;48.884;8.338;2022-11-23T09:51:43;98881.84;;;11.58;100.00
10881;BME280;5493;48.884;8.338;2022-11-23T09:54:19;98876.34;;;11.75;100.00
10881;BME280;5493;48.884;8.338;2022-11-23T09:56:48;98875.56;;;11.84;100.00
10881;BME280;5493;48.884;8.338;2022-11-23T09:59:22;98876.38;;;11.85;100.00
10881;BME280;5493;48.884;8.338;2022-11-23T10:01:51;98876.16;;;11.92;100.00
10881;BME280;5493;48.884;8.338;2022-11-23T10:04:19;98879.88;;;11.80;100.00
10881;BME280;5493;48.884;8.338;2022-11-23T10:06:51;98878.59;;;11.98;100.00
10881;BME280;5493;48.884;8.338;2022-11-23T10:09:28;98871.34;;;12.04;100.00
10881;BME280;5493;48.884;8.338;2022-11-23T10:12:14;98877.78;;;11.98;100.00
10881;BME280;5493;48.884;8.338;2022-11-23T10:14:52;98871.31;;;11.94;100.00
10881;BME280;5493;48.884;8.338;2022-11-23T10:17:24;98868.56;;;11.89;100.00
10881;BME280;5493;48.884;8.338;2022-11-23T10:20:03;98862.88;;;11.90;100.00
10881;BME280;5493;48.884;8.338;2022-11-23T10:22:45;98871.03;;;11.95;100.00
10881;BME280;5493;48.884;8.338;2022-11-23T10:25:16;98866.47;;;12.01;100.00
10881;BME280;5493;48.884;8.338;2022-11-23T10:27:45;98865.97;;;12.14;100.00
10881;BME280;5493;48.884;8.338;2022-11-23T10:30:15;98869.00;;;12.22;100.00
10881;BME280;5493;48.884;8.338;2022-11-23T10:32:46;98864.44;;;12.33;100.00
10881;BME280;5493;48.884;8.338;2022-11-23T10:35:17;98869.84;;;12.38;100.00
10881;BME280;5493;48.884;8.338;2022-11-23T10:37:47;98865.56;;;12.47;100.00
10881;BME280;5493;48.884;8.338;2022-11-23T10:40:16;98866.63;;;12.46;100.00
10881;BME280;5493;48.884;8.338;2022-11-23T10:42:46;98863.69;;;12.48;100.00
10881;BME280;5493;48.884;8.338;2022-11-23T10:45:20;98852.03;;;12.37;100.00
10881;BME280;5493;48.884;8.338;2022-11-23T10:47:49;98852.88;;;12.58;100.00
10881;BME280;5493;48.884;8.338;2022-11-23T10:50:25;98849.66;;;12.66;100.00
10881;BME280;5493;48.884;8.338;2022-11-23T10:52:55;98848.56;;;12.62;100.00
10881;BME280;5493;48.884;8.338;2022-11-23T10:55:27;98841.25;;;12.62;100.00
10881;BME280;5493;48.884;8.338;2022-11-23T10:57:55;98832.06;;;12.58;100.00
10881;BME280;5493;48.884;8.338;2022-11-23T11:00:24;98837.75;;;12.72;100.00
10881;BME280;5493;48.884;8.338;2022-11-23T11:02:52;98827.75;;;12.72;100.00
10881;BME280;5493;48.884;8.338;2022-11-23T11:05:31;98821.25;;;12.68;100.00
10881;BME280;5493;48.884;8.338;2022-11-23T11:08:01;98818.31;;;12.80;100.00
10881;BME280;5493;48.884;8.338;2022-11-23T11:10:35;98818.81;;;12.77;100.00
10881;BME280;5493;48.884;8.338;2022-11-23T11:13:20;98813.97;;;12.84;100.00
10881;BME280;5493;48.884;8.338;2022-11-23T11:15:51;98808.56;;;12.89;100.00
10881;BME280;5493;48.884;8.338;2022-11-23T11:18:18;98813.09;;;12.48;100.00
10881;BME280;5493;48.884;8.338;2022-11-23T11:20:45;98810.97;;;12.86;100.00
10881;BME280;5493;48.884;8.338;2022-11-23T11:23:16;98802.59;;;12.97;100.00
10881;BME280;5493;48.884;8.338;2022-11-23T11:25:45;98802.34;;;13.19;100.00
10881;BME280;5493;48.884;8.338;2022-11-23T11:28:22;98805.03;;;13.09;100.00
10881;BME280;5493;48.884;8.338;2022-11-23T11:30:58;98787.19;;;13.18;100.00
10881;BME280;5493;48.884;8.338;2022-11-23T11:33:32;98786.09;;;13.24;100.00
10881;BME280;5493;48.884;8.338;2022-11-23T11:36:02;98780.66;;;13.39;100.00
10881;BME280;5493;48.884;8.338;2022-11-23T11:38:34;98783.31;;;13.59;100.00
10881;BME280;5493;48.884;8.338;2022-11-23T11:41:06;98778.38;;;13.71;100.00
10881;BME280;5493;48.884;8.338;2022-11-23T11:43:35;98774.03;;;13.75;100.00
10881;BME280;5493;48.884;8.338;2022-11-23T11:46:08;98772.34;;;13.95;100.00
10881;BME280;5493;48.884;8.338;2022-11-23T11:48:38;98775.09;;;14.39;100.00
10881;BME280;5493;48.884;8.338;2022-11-23T11:51:07;98779.06;;;15.19;100.00
10881;BME280;5493;48.884;8.338;2022-11-23T11:53:40;98771.44;;;15.73;100.00
10881;BME280;5493;48.884;8.338;2022-11-23T11:56:14;98769.41;;;16.27;100.00
10881;BME280;5493;48.884;8.338;2022-11-23T11:58:53;98761.19;;;16.83;100.00
10881;BME280;5493;48.884;8.338;2022-11-23T12:01:27;98761.88;;;17.80;100.00
10881;BME280;5493;48.884;8.338;2022-11-23T12:04:03;98765.06;;;18.23;98.51
10881;BME280;5493;48.884;8.338;2022-11-23T12:06:34;98765.03;;;18.73;94.77
10881;BME280;5493;48.884;8.338;2022-11-23T12:09:11;98765.41;;;18.44;92.87
10881;BME280;5493;48.884;8.338;2022-11-23T12:11:39;98758.56;;;19.13;92.00
10881;BME280;5493;48.884;8.338;2022-11-23T12:14:11;98756.81;;;19.17;80.67
10881;BME280;5493;48.884;8.338;2022-11-23T12:16:48;98762.75;;;19.81;75.37
10881;BME280;5493;48.884;8.338;2022-11-23T12:19:20;98762.59;;;19.77;76.28
10881;BME280;5493;48.884;8.338;2022-11-23T12:22:25;98752.66;;;19.50;70.87
10881;BME280;5493;48.884;8.338;2022-11-23T12:25:08;98750.41;;;20.00;80.55
10881;BME280;5493;48.884;8.338;2022-11-23T12:27:46;98747.72;;;20.18;67.40
10881;BME280;5493;48.884;8.338;2022-11-23T12:30:23;98747.91;;;20.38;67.53
10881;BME280;5493;48.884;8.338;2022-11-23T12:33:05;98738.41;;;20.70;63.38
10881;BME280;5493;48.884;8.338;2022-11-23T12:35:59;98728.25;;;20.62;64.47
10881;BME280;5493;48.884;8.338;2022-11-23T12:38:30;98729.91;;;20.29;67.45
10881;BME280;5493;48.884;8.338;2022-11-23T12:41:13;98719.50;;;21.03;62.35
10881;BME280;5493;48.884;8.338;2022-11-23T12:43:53;98721.00;;;20.83;63.93
10881;BME280;5493;48.884;8.338;2022-11-23T12:46:28;98718.19;;;21.09;60.15
10881;BME280;5493;48.884;8.338;2022-11-23T12:49:10;98723.44;;;20.76;61.58
10881;BME280;5493;48.884;8.338;2022-11-23T12:51:44;98723.13;;;20.60;63.64
10881;BME280;5493;48.884;8.338;2022-11-23T12:54:28;98717.91;;;20.93;63.64
10881;BME280;5493;48.884;8.338;2022-11-23T12:57:07;98719.34;;;20.91;55.03
10881;BME280;5493;48.884;8.338;2022-11-23T12:59:41;98712.94;;;20.70;55.48
10881;BME280;5493;48.884;8.338;2022-11-23T13:02:26;98698.66;;;20.47;64.27
10881;BME280;5493;48.884;8.338;2022-11-23T13:05:25;98711.94;;;19.88;61.97
10881;BME280;5493;48.884;8.338;2022-11-23T13:08:14;98713.31;;;19.69;64.08
10881;BME280;5493;48.884;8.338;2022-11-23T13:10:57;98704.25;;;19.51;64.30
10881;BME280;5493;48.884;8.338;2022-11-23T13:13:44;98694.75;;;18.42;71.33
10881;BME280;5493;48.884;8.338;2022-11-23T13:16:28;98693.50;;;18.62;79.64
10881;BME280;5493;48.884;8.338;2022-11-23T13:19:11;98679.81;;;19.46;74.52